createdAt,value
2022-10-15T00:00:05.032Z,0.00
2022-10-15T00:01:05.054Z,0.00
2022-10-15T00:02:05.008Z,0.00
2022-10-15T00:03:05.024Z,0.00
2022-10-15T00:04:04.988Z,0.00
2022-10-15T00:05:04.982Z,0.00
2022-10-15T00:06:04.960Z,0.00
2022-10-15T00:07:04.946Z,0.00
2022-10-15T00:08:04.985Z,0.00
2022-10-15T00:09:04.936Z,0.00
2022-10-15T00:10:04.933Z,0.00
2022-10-15T00:11:04.912Z,0.00
2022-10-15T00:12:04.902Z,0.00
2022-10-15T00:13:04.906Z,0.00
2022-10-15T00:14:04.891Z,0.00
2022-10-15T00:15:04.885Z,0.00
2022-10-15T00:16:04.857Z,0.00
2022-10-15T00:17:04.841Z,0.00
2022-10-15T00:18:04.854Z,0.00
2022-10-15T00:19:06.491Z,0.00
2022-10-15T00:20:04.816Z,0.00
2022-10-15T00:21:04.799Z,0.00
2022-10-15T00:22:04.818Z,0.00
2022-10-15T00:23:04.818Z,0.00
2022-10-15T00:24:04.794Z,0.00
2022-10-15T00:25:04.833Z,0.00
2022-10-15T00:26:04.748Z,0.00
2022-10-15T00:27:04.746Z,0.00
2022-10-15T00:28:04.749Z,0.00
2022-10-15T00:29:04.755Z,0.00
2022-10-15T00:30:04.706Z,0.00
2022-10-15T00:32:04.693Z,0.00
2022-10-15T00:33:04.698Z,0.00
2022-10-15T00:34:04.659Z,0.00
2022-10-15T00:35:04.670Z,0.00
2022-10-15T00:36:04.639Z,0.00
2022-10-15T00:37:04.624Z,0.00
2022-10-15T00:38:04.632Z,0.00
2022-10-15T00:39:04.606Z,0.00
2022-10-15T00:40:04.603Z,0.00
2022-10-15T00:41:04.590Z,0.00
2022-10-15T00:42:04.585Z,0.00
2022-10-15T00:43:04.582Z,0.00
2022-10-15T00:44:04.563Z,0.00
2022-10-15T00:45:04.555Z,0.00
2022-10-15T00:46:04.550Z,0.00
2022-10-15T00:47:04.558Z,0.00
2022-10-15T00:48:04.553Z,0.00
2022-10-15T00:49:05.621Z,0.00
2022-10-15T00:50:04.545Z,0.00
2022-10-15T00:51:04.471Z,0.00
2022-10-15T00:52:04.542Z,0.00
2022-10-15T00:53:04.571Z,0.00
2022-10-15T00:54:04.493Z,0.00
2022-10-15T00:55:04.463Z,0.00
2022-10-15T00:56:04.435Z,0.00
2022-10-15T00:57:04.424Z,0.00
2022-10-15T00:58:04.454Z,0.00
2022-10-15T00:59:04.394Z,0.00
2022-10-15T01:00:04.387Z,0.00
2022-10-15T01:01:04.446Z,0.00
2022-10-15T01:02:04.366Z,0.00
2022-10-15T01:03:04.353Z,0.00
2022-10-15T01:04:04.354Z,0.00
2022-10-15T01:05:04.342Z,0.00
2022-10-15T01:06:04.346Z,0.00
2022-10-15T01:07:04.371Z,0.00
2022-10-15T01:08:04.302Z,0.00
2022-10-15T01:09:04.296Z,0.00
2022-10-15T01:10:04.433Z,0.00
2022-10-15T01:11:04.387Z,0.00
2022-10-15T01:12:04.268Z,0.00
2022-10-15T01:13:04.246Z,0.00
2022-10-15T01:14:04.249Z,0.00
2022-10-15T01:15:04.247Z,0.00
2022-10-15T01:16:04.287Z,0.00
2022-10-15T01:17:04.208Z,0.00
2022-10-15T01:18:04.213Z,0.00
2022-10-15T01:19:05.699Z,0.00
2022-10-15T01:20:04.187Z,0.00
2022-10-15T01:21:04.189Z,0.00
2022-10-15T01:22:04.157Z,0.00
2022-10-15T01:23:04.159Z,0.00
2022-10-15T01:24:04.129Z,0.00
2022-10-15T01:25:04.169Z,0.00
2022-10-15T01:26:04.129Z,0.00
2022-10-15T01:27:04.100Z,0.00
2022-10-15T01:28:04.092Z,0.00
2022-10-15T01:29:04.080Z,0.00
2022-10-15T01:30:04.071Z,0.00
2022-10-15T01:31:04.052Z,0.00
2022-10-15T01:32:04.064Z,0.00
2022-10-15T01:33:04.036Z,0.00
2022-10-15T01:34:04.098Z,0.00
2022-10-15T01:35:04.013Z,0.00
2022-10-15T01:36:06.391Z,0.00
2022-10-15T01:37:03.996Z,0.00
2022-10-15T01:38:03.979Z,0.00
2022-10-15T01:39:03.962Z,0.00
2022-10-15T01:40:03.976Z,0.00
2022-10-15T01:41:03.973Z,0.00
2022-10-15T01:42:03.943Z,0.00
2022-10-15T01:43:03.950Z,0.00
2022-10-15T01:44:03.922Z,0.00
2022-10-15T01:45:03.904Z,0.00
2022-10-15T01:46:03.926Z,0.00
2022-10-15T01:47:03.909Z,0.00
2022-10-15T01:48:03.885Z,0.00
2022-10-15T01:49:05.815Z,0.00
2022-10-15T01:50:03.879Z,0.00
2022-10-15T01:51:03.852Z,0.00
2022-10-15T01:52:03.841Z,0.00
2022-10-15T01:53:03.855Z,0.00
2022-10-15T01:54:03.818Z,0.00
2022-10-15T01:55:03.808Z,0.00
2022-10-15T01:56:03.808Z,0.00
2022-10-15T01:57:03.788Z,0.00
2022-10-15T01:58:03.776Z,0.00
2022-10-15T01:59:03.770Z,0.00
2022-10-15T02:00:03.757Z,0.00
2022-10-15T02:01:03.791Z,0.00
2022-10-15T02:02:03.739Z,0.00
2022-10-15T02:03:03.711Z,0.00
2022-10-15T02:04:03.710Z,0.00
2022-10-15T02:05:03.716Z,0.00
2022-10-15T02:06:03.679Z,0.00
2022-10-15T02:07:03.686Z,0.00
2022-10-15T02:08:03.659Z,0.00
2022-10-15T02:09:03.646Z,0.00
2022-10-15T02:10:03.653Z,0.00
2022-10-15T02:11:03.638Z,0.00
2022-10-15T02:12:03.627Z,0.00
2022-10-15T02:13:03.606Z,0.00
2022-10-15T02:14:03.603Z,0.00
2022-10-15T02:15:03.610Z,0.00
2022-10-15T02:16:03.581Z,0.00
2022-10-15T02:17:03.563Z,0.00
2022-10-15T02:18:03.571Z,0.00
2022-10-15T02:19:04.965Z,0.00
2022-10-15T02:20:03.522Z,0.00
2022-10-15T02:21:03.516Z,0.00
2022-10-15T02:22:03.513Z,0.00
2022-10-15T02:23:03.512Z,0.00
2022-10-15T02:24:03.533Z,0.00
2022-10-15T02:25:03.485Z,0.00
2022-10-15T02:26:03.482Z,0.00
2022-10-15T02:27:03.449Z,0.00
2022-10-15T02:28:03.442Z,0.00
2022-10-15T02:29:03.565Z,0.00
2022-10-15T02:30:03.433Z,0.00
2022-10-15T02:31:03.424Z,0.00
2022-10-15T02:32:03.404Z,0.00
2022-10-15T02:33:03.391Z,0.00
2022-10-15T02:34:03.402Z,0.00
2022-10-15T02:35:03.401Z,0.00
2022-10-15T02:36:03.362Z,0.00
2022-10-15T02:37:03.347Z,0.00
2022-10-15T02:38:03.412Z,0.00
2022-10-15T02:39:03.373Z,0.00
2022-10-15T02:40:03.315Z,0.00
2022-10-15T02:41:03.309Z,0.00
2022-10-15T02:42:03.291Z,0.00
2022-10-15T02:43:03.363Z,0.00
2022-10-15T02:44:03.301Z,0.00
2022-10-15T02:45:03.306Z,0.00
2022-10-15T02:46:03.269Z,0.00
2022-10-15T02:47:03.248Z,0.00
2022-10-15T02:48:03.249Z,0.00
2022-10-15T02:49:05.039Z,0.00
2022-10-15T02:50:03.238Z,0.00
2022-10-15T02:51:03.209Z,0.00
2022-10-15T02:52:03.200Z,0.00
2022-10-15T02:53:03.189Z,0.00
2022-10-15T02:54:03.186Z,0.00
2022-10-15T02:55:03.153Z,0.00
2022-10-15T02:56:03.148Z,0.00
2022-10-15T02:57:03.143Z,0.00
2022-10-15T02:58:03.136Z,0.00
2022-10-15T02:59:03.140Z,0.00
2022-10-15T03:00:03.103Z,0.00
2022-10-15T03:01:03.159Z,0.00
2022-10-15T03:02:03.110Z,0.00
2022-10-15T03:03:03.070Z,0.00
2022-10-15T03:04:03.074Z,0.00
2022-10-15T03:05:03.081Z,0.00
2022-10-15T03:06:03.040Z,0.00
2022-10-15T03:07:03.032Z,0.00
2022-10-15T03:08:03.017Z,0.00
2022-10-15T03:09:03.021Z,0.00
2022-10-15T03:10:02.992Z,0.00
2022-10-15T03:11:02.993Z,0.00
2022-10-15T03:12:02.974Z,0.00
2022-10-15T03:13:02.965Z,0.00
2022-10-15T03:14:02.980Z,0.00
2022-10-15T03:15:02.958Z,0.00
2022-10-15T03:16:02.945Z,0.00
2022-10-15T03:17:02.917Z,0.00
2022-10-15T03:18:02.924Z,0.00
2022-10-15T03:19:02.955Z,0.00
2022-10-15T03:20:02.915Z,0.00
2022-10-15T03:21:02.881Z,0.00
2022-10-15T03:22:02.860Z,0.00
2022-10-15T03:23:02.856Z,0.00
2022-10-15T03:24:02.857Z,0.00
2022-10-15T03:25:02.887Z,0.00
2022-10-15T03:26:02.824Z,0.00
2022-10-15T03:27:02.816Z,0.00
2022-10-15T03:28:02.808Z,0.00
2022-10-15T03:29:02.786Z,0.00
2022-10-15T03:30:02.796Z,0.00
2022-10-15T03:31:02.780Z,0.00
2022-10-15T03:32:02.766Z,0.00
2022-10-15T03:33:02.763Z,0.00
2022-10-15T03:34:02.756Z,0.00
2022-10-15T03:35:02.748Z,0.00
2022-10-15T03:36:02.729Z,0.00
2022-10-15T03:37:02.732Z,0.00
2022-10-15T03:38:02.710Z,0.00
2022-10-15T03:39:02.698Z,0.00
2022-10-15T03:40:02.705Z,0.00
2022-10-15T03:41:02.679Z,0.00
2022-10-15T03:42:02.683Z,0.00
2022-10-15T03:43:02.640Z,0.00
2022-10-15T03:44:02.631Z,0.00
2022-10-15T03:45:02.650Z,0.00
2022-10-15T03:46:02.622Z,0.00
2022-10-15T03:47:02.628Z,0.00
2022-10-15T03:48:02.590Z,0.00
2022-10-15T03:49:02.644Z,0.00
2022-10-15T03:50:02.563Z,0.00
2022-10-15T03:51:02.585Z,0.00
2022-10-15T03:52:02.550Z,0.00
2022-10-15T03:53:02.573Z,0.00
2022-10-15T03:54:02.532Z,0.00
2022-10-15T03:55:02.580Z,0.00
2022-10-15T03:56:02.498Z,0.00
2022-10-15T03:57:02.503Z,0.00
2022-10-15T03:58:02.504Z,0.00
2022-10-15T03:59:02.493Z,0.00
2022-10-15T04:00:02.490Z,0.00
2022-10-15T04:01:02.546Z,0.00
2022-10-15T04:02:02.455Z,0.00
2022-10-15T04:03:02.433Z,0.00
2022-10-15T04:04:02.417Z,0.00
2022-10-15T04:05:02.461Z,0.00
2022-10-15T04:06:03.386Z,0.00
2022-10-15T04:07:02.403Z,0.00
2022-10-15T04:08:02.374Z,0.00
2022-10-15T04:09:02.366Z,0.00
2022-10-15T04:10:02.386Z,0.00
2022-10-15T04:11:02.336Z,0.00
2022-10-15T04:12:02.342Z,0.00
2022-10-15T04:13:02.338Z,0.00
2022-10-15T04:14:02.308Z,0.00
2022-10-15T04:15:02.324Z,0.00
2022-10-15T04:16:02.314Z,0.00
2022-10-15T04:17:02.294Z,0.00
2022-10-15T04:18:02.275Z,0.00
2022-10-15T04:19:03.446Z,0.00
2022-10-15T04:20:02.273Z,0.00
2022-10-15T04:21:02.245Z,0.00
2022-10-15T04:22:02.217Z,0.00
2022-10-15T04:23:02.211Z,0.00
2022-10-15T04:24:02.200Z,0.00
2022-10-15T04:25:02.215Z,0.00
2022-10-15T04:26:02.200Z,0.00
2022-10-15T04:27:02.240Z,0.00
2022-10-15T04:28:02.159Z,0.00
2022-10-15T04:29:02.194Z,0.00
2022-10-15T04:30:02.182Z,0.00
2022-10-15T04:31:02.141Z,0.00
2022-10-15T04:32:02.130Z,0.00
2022-10-15T04:33:02.101Z,0.00
2022-10-15T04:34:02.113Z,0.00
2022-10-15T04:35:02.112Z,0.00
2022-10-15T04:36:02.145Z,0.00
2022-10-15T04:37:02.065Z,0.00
2022-10-15T04:38:02.056Z,0.00
2022-10-15T04:39:02.058Z,0.00
2022-10-15T04:40:02.041Z,0.00
2022-10-15T04:41:02.024Z,0.00
2022-10-15T04:42:02.013Z,0.00
2022-10-15T04:43:02.012Z,0.00
2022-10-15T04:44:02.018Z,0.00
2022-10-15T04:45:01.974Z,0.00
2022-10-15T04:46:01.976Z,0.00
2022-10-15T04:47:01.961Z,0.00
2022-10-15T04:48:01.942Z,0.00
2022-10-15T04:49:01.955Z,0.00
2022-10-15T04:50:01.939Z,0.00
2022-10-15T04:51:02.096Z,0.00
2022-10-15T04:52:01.866Z,0.00
2022-10-15T04:53:01.857Z,0.00
2022-10-15T04:54:01.890Z,0.00
2022-10-15T04:55:01.894Z,0.00
2022-10-15T04:56:01.865Z,0.00
2022-10-15T04:57:01.795Z,0.00
2022-10-15T04:58:01.793Z,0.00
2022-10-15T04:59:01.835Z,0.00
2022-10-15T05:00:01.852Z,0.00
2022-10-15T05:01:01.796Z,0.00
2022-10-15T05:02:01.817Z,0.00
2022-10-15T05:03:01.747Z,0.00
2022-10-15T05:04:01.738Z,0.00
2022-10-15T05:05:01.712Z,0.00
2022-10-15T05:06:01.708Z,0.00
2022-10-15T05:07:01.688Z,0.00
2022-10-15T05:08:01.709Z,0.00
2022-10-15T05:09:01.686Z,0.00
2022-10-15T05:10:01.660Z,0.00
2022-10-15T05:11:01.650Z,0.00
2022-10-15T05:12:01.658Z,0.00
2022-10-15T05:13:01.639Z,0.00
2022-10-15T05:14:01.621Z,0.00
2022-10-15T05:15:01.612Z,0.00
2022-10-15T05:16:01.589Z,0.00
2022-10-15T05:17:01.609Z,0.00
2022-10-15T05:18:01.584Z,0.00
2022-10-15T05:19:01.574Z,0.00
2022-10-15T05:20:01.577Z,0.00
2022-10-15T05:21:01.531Z,0.00
2022-10-15T05:22:01.567Z,0.00
2022-10-15T05:23:01.536Z,0.00
2022-10-15T05:24:01.507Z,0.00
2022-10-15T05:25:01.505Z,0.00
2022-10-15T05:26:01.614Z,0.00
2022-10-15T05:27:03.060Z,0.00
2022-10-15T05:28:01.673Z,0.00
2022-10-15T05:29:01.644Z,0.00
2022-10-15T05:30:01.434Z,0.00
2022-10-15T05:31:01.430Z,5.62
2022-10-15T05:32:01.445Z,5.62
2022-10-15T05:33:01.402Z,5.62
2022-10-15T05:34:01.403Z,5.62
2022-10-15T05:35:01.384Z,5.62
2022-10-15T05:36:01.385Z,5.62
2022-10-15T05:37:01.407Z,5.62
2022-10-15T05:38:01.395Z,5.62
2022-10-15T05:39:01.358Z,5.62
2022-10-15T05:40:01.362Z,5.62
2022-10-15T05:41:01.346Z,5.62
2022-10-15T05:42:01.340Z,5.62
2022-10-15T05:43:01.347Z,5.62
2022-10-15T05:44:01.320Z,5.62
2022-10-15T05:45:01.303Z,11.25
2022-10-15T05:46:01.288Z,11.25
2022-10-15T05:47:01.266Z,11.25
2022-10-15T05:48:01.265Z,11.25
2022-10-15T05:49:01.247Z,16.88
2022-10-15T05:50:01.254Z,16.88
2022-10-15T05:51:01.225Z,16.88
2022-10-15T05:52:01.221Z,16.88
2022-10-15T05:53:01.221Z,16.88
2022-10-15T05:54:01.203Z,22.50
2022-10-15T05:55:01.197Z,22.50
2022-10-15T05:56:01.163Z,22.50
2022-10-15T05:57:01.165Z,22.50
2022-10-15T05:58:01.165Z,22.50
2022-10-15T05:59:01.138Z,22.50
2022-10-15T06:00:01.118Z,22.50
2022-10-15T06:01:01.189Z,16.88
2022-10-15T06:02:01.133Z,16.88
2022-10-15T06:03:01.091Z,16.88
2022-10-15T06:04:01.100Z,16.88
2022-10-15T06:05:01.068Z,16.88
2022-10-15T06:06:01.074Z,16.88
2022-10-15T06:07:01.050Z,16.88
2022-10-15T06:08:01.031Z,16.88
2022-10-15T06:09:01.120Z,16.88
2022-10-15T06:10:01.006Z,16.88
2022-10-15T06:11:03.879Z,22.50
2022-10-15T06:12:01.990Z,22.50
2022-10-15T06:13:01.014Z,22.50
2022-10-15T06:14:01.004Z,22.50
2022-10-15T06:15:00.969Z,22.50
2022-10-15T06:16:00.944Z,22.50
2022-10-15T06:17:00.954Z,22.50
2022-10-15T06:18:00.936Z,28.12
2022-10-15T06:19:01.205Z,28.12
2022-10-15T06:20:00.916Z,33.75
2022-10-15T06:21:00.893Z,33.75
2022-10-15T06:22:00.885Z,39.38
2022-10-15T06:23:00.885Z,39.38
2022-10-15T06:24:01.698Z,45.00
2022-10-15T06:25:00.841Z,50.62
2022-10-15T06:26:00.841Z,61.88
2022-10-15T06:27:00.857Z,67.50
2022-10-15T06:28:00.826Z,73.12
2022-10-15T06:29:00.895Z,78.75
2022-10-15T06:30:00.795Z,90.00
2022-10-15T06:31:00.790Z,101.25
2022-10-15T06:32:00.774Z,106.88
2022-10-15T06:33:00.904Z,106.88
2022-10-15T06:34:00.893Z,106.88
2022-10-15T06:35:00.756Z,106.88
2022-10-15T06:36:00.750Z,106.88
2022-10-15T06:37:00.803Z,112.50
2022-10-15T06:38:03.046Z,112.50
2022-10-15T06:39:00.732Z,106.88
2022-10-15T06:40:00.700Z,101.25
2022-10-15T06:41:00.679Z,101.25
2022-10-15T06:42:00.676Z,106.88
2022-10-15T06:43:00.710Z,106.88
2022-10-15T06:44:00.673Z,106.88
2022-10-15T06:45:00.740Z,112.50
2022-10-15T06:46:00.630Z,118.12
2022-10-15T06:47:00.625Z,123.75
2022-10-15T06:48:00.655Z,123.75
2022-10-15T06:49:00.630Z,129.38
2022-10-15T06:50:00.596Z,135.00
2022-10-15T06:51:00.585Z,135.00
2022-10-15T06:52:03.565Z,140.62
2022-10-15T06:53:00.636Z,140.62
2022-10-15T06:54:00.553Z,140.62
2022-10-15T06:55:00.544Z,135.00
2022-10-15T06:56:00.514Z,135.00
2022-10-15T06:57:00.536Z,129.38
2022-10-15T06:58:00.503Z,135.00
2022-10-15T06:59:00.520Z,151.88
2022-10-15T07:00:00.518Z,168.75
2022-10-15T07:01:00.606Z,168.75
2022-10-15T07:02:00.457Z,168.75
2022-10-15T07:03:00.454Z,146.25
2022-10-15T07:04:00.450Z,123.75
2022-10-15T07:05:00.416Z,118.12
2022-10-15T07:06:00.409Z,118.12
2022-10-15T07:07:00.403Z,112.50
2022-10-15T07:08:00.385Z,112.50
2022-10-15T07:09:00.566Z,118.12
2022-10-15T07:10:00.777Z,129.38
2022-10-15T07:11:00.366Z,140.62
2022-10-15T07:12:00.357Z,151.88
2022-10-15T07:13:00.373Z,196.88
2022-10-15T07:14:00.347Z,236.25
2022-10-15T07:15:00.338Z,275.62
2022-10-15T07:16:00.303Z,270.00
2022-10-15T07:17:57.263Z,230.62
2022-10-15T07:18:54.532Z,225.00
2022-10-15T07:19:54.503Z,202.50
2022-10-15T07:20:54.494Z,168.75
2022-10-15T07:21:54.527Z,146.25
2022-10-15T07:22:54.493Z,135.00
2022-10-15T07:23:54.452Z,123.75
2022-10-15T07:24:54.481Z,123.75
2022-10-15T07:25:54.455Z,123.75
2022-10-15T07:26:54.426Z,123.75
2022-10-15T07:27:54.404Z,135.00
2022-10-15T07:28:54.457Z,140.62
2022-10-15T07:29:54.406Z,140.62
2022-10-15T07:30:54.387Z,151.88
2022-10-15T07:31:54.371Z,163.12
2022-10-15T07:32:54.359Z,174.38
2022-10-15T07:33:54.377Z,180.00
2022-10-15T07:34:54.334Z,185.62
2022-10-15T07:35:54.329Z,196.88
2022-10-15T07:36:54.323Z,208.12
2022-10-15T07:37:54.338Z,219.38
2022-10-15T07:38:54.300Z,225.00
2022-10-15T07:39:54.308Z,225.00
2022-10-15T07:40:54.283Z,241.88
2022-10-15T07:41:54.323Z,225.00
2022-10-15T07:42:54.269Z,213.75
2022-10-15T07:43:54.249Z,213.75
2022-10-15T07:44:54.269Z,230.62
2022-10-15T07:45:54.224Z,213.75
2022-10-15T07:46:54.226Z,202.50
2022-10-15T07:47:54.206Z,213.75
2022-10-15T07:48:54.211Z,236.25
2022-10-15T07:49:54.213Z,196.88
2022-10-15T07:50:54.170Z,191.25
2022-10-15T07:51:54.163Z,281.25
2022-10-15T07:52:54.164Z,281.25
2022-10-15T07:53:54.153Z,281.25
2022-10-15T07:54:54.194Z,281.25
2022-10-15T07:55:54.125Z,281.25
2022-10-15T07:56:54.113Z,281.25
2022-10-15T07:57:54.105Z,281.25
2022-10-15T07:58:54.092Z,270.00
2022-10-15T07:59:54.093Z,281.25
2022-10-15T08:00:54.095Z,286.88
2022-10-15T08:01:54.072Z,286.88
2022-10-15T08:02:54.075Z,281.25
2022-10-15T08:03:54.024Z,264.38
2022-10-15T08:04:54.060Z,286.88
2022-10-15T08:05:54.006Z,281.25
2022-10-15T08:06:53.995Z,275.62
2022-10-15T08:07:53.995Z,286.88
2022-10-15T08:08:53.985Z,286.88
2022-10-15T08:09:54.068Z,292.50
2022-10-15T08:10:53.956Z,292.50
2022-10-15T08:11:53.960Z,286.88
2022-10-15T08:12:53.930Z,286.88
2022-10-15T08:13:53.938Z,286.88
2022-10-15T08:14:53.954Z,303.75
2022-10-15T08:15:56.322Z,309.38
2022-10-15T08:16:54.899Z,298.12
2022-10-15T08:17:53.878Z,292.50
2022-10-15T08:18:53.901Z,303.75
2022-10-15T08:19:53.870Z,303.75
2022-10-15T08:20:53.852Z,298.12
2022-10-15T08:21:53.854Z,258.75
2022-10-15T08:22:53.905Z,303.75
2022-10-15T08:23:53.828Z,315.00
2022-10-15T08:24:53.821Z,331.88
2022-10-15T08:25:53.831Z,343.12
2022-10-15T08:26:53.892Z,343.12
2022-10-15T08:27:53.778Z,348.75
2022-10-15T08:28:53.867Z,360.00
2022-10-15T08:29:53.826Z,348.75
2022-10-15T08:30:53.757Z,348.75
2022-10-15T08:31:53.830Z,258.75
2022-10-15T08:32:53.721Z,247.50
2022-10-15T08:33:53.740Z,247.50
2022-10-15T08:34:54.672Z,253.12
2022-10-15T08:35:53.712Z,230.62
2022-10-15T08:36:53.688Z,208.12
2022-10-15T08:37:53.750Z,202.50
2022-10-15T08:38:53.662Z,208.12
2022-10-15T08:39:53.723Z,219.38
2022-10-15T08:40:53.638Z,236.25
2022-10-15T08:41:53.667Z,253.12
2022-10-15T08:42:53.646Z,264.38
2022-10-15T08:43:53.604Z,258.75
2022-10-15T08:44:53.616Z,264.38
2022-10-15T08:45:53.643Z,292.50
2022-10-15T08:46:53.586Z,286.88
2022-10-15T08:47:53.575Z,281.25
2022-10-15T08:48:53.574Z,292.50
2022-10-15T08:49:53.545Z,315.00
2022-10-15T08:50:54.113Z,343.12
2022-10-15T08:51:53.540Z,421.88
2022-10-15T08:52:53.524Z,388.12
2022-10-15T08:53:53.524Z,421.88
2022-10-15T08:54:53.548Z,421.88
2022-10-15T08:55:53.535Z,433.12
2022-10-15T08:56:53.477Z,444.38
2022-10-15T08:57:53.498Z,466.88
2022-10-15T08:58:53.478Z,382.50
2022-10-15T08:59:53.438Z,360.00
2022-10-15T09:00:53.452Z,461.25
2022-10-15T09:01:53.437Z,450.00
2022-10-15T09:02:53.429Z,466.88
2022-10-15T09:03:53.411Z,331.88
2022-10-15T09:04:53.422Z,303.75
2022-10-15T09:05:53.404Z,270.00
2022-10-15T09:06:53.408Z,241.88
2022-10-15T09:07:54.545Z,230.62
2022-10-15T09:08:53.396Z,213.75
2022-10-15T09:09:53.354Z,191.25
2022-10-15T09:10:53.334Z,185.62
2022-10-15T09:11:53.320Z,174.38
2022-10-15T09:12:53.321Z,180.00
2022-10-15T09:13:53.303Z,180.00
2022-10-15T09:14:55.688Z,180.00
2022-10-15T09:15:53.293Z,174.38
2022-10-15T09:16:53.265Z,185.62
2022-10-15T09:17:53.260Z,213.75
2022-10-15T09:18:53.239Z,230.62
2022-10-15T09:19:53.229Z,241.88
2022-10-15T09:20:53.216Z,253.12
2022-10-15T09:21:53.235Z,241.88
2022-10-15T09:22:53.200Z,241.88
2022-10-15T09:23:53.185Z,230.62
2022-10-15T09:24:53.181Z,230.62
2022-10-15T09:25:53.197Z,241.88
2022-10-15T09:26:53.177Z,241.88
2022-10-15T09:27:53.156Z,253.12
2022-10-15T09:28:53.178Z,258.75
2022-10-15T09:29:53.132Z,270.00
2022-10-15T09:30:53.116Z,270.00
2022-10-15T09:31:53.148Z,275.62
2022-10-15T09:32:54.544Z,275.62
2022-10-15T09:33:53.087Z,286.88
2022-10-15T09:34:53.088Z,286.88
2022-10-15T09:35:53.109Z,292.50
2022-10-15T09:36:53.048Z,281.25
2022-10-15T09:37:53.083Z,275.62
2022-10-15T09:38:53.050Z,264.38
2022-10-15T09:39:53.147Z,264.38
2022-10-15T09:40:53.036Z,270.00
2022-10-15T09:41:53.004Z,270.00
2022-10-15T09:42:53.024Z,275.62
2022-10-15T09:43:52.981Z,292.50
2022-10-15T09:44:52.969Z,303.75
2022-10-15T09:45:52.982Z,320.62
2022-10-15T09:46:52.953Z,326.25
2022-10-15T09:47:52.963Z,337.50
2022-10-15T09:48:52.934Z,360.00
2022-10-15T09:49:52.926Z,421.88
2022-10-15T09:50:52.935Z,382.50
2022-10-15T09:51:52.903Z,455.62
2022-10-15T09:52:52.915Z,523.12
2022-10-15T09:53:52.905Z,495.00
2022-10-15T09:54:52.879Z,551.25
2022-10-15T09:55:52.855Z,534.38
2022-10-15T09:56:52.855Z,478.12
2022-10-15T09:57:52.861Z,450.00
2022-10-15T09:58:52.878Z,427.50
2022-10-15T09:59:52.822Z,433.12
2022-10-15T10:00:52.817Z,320.62
2022-10-15T10:01:52.869Z,270.00
2022-10-15T10:02:52.796Z,286.88
2022-10-15T10:03:52.777Z,320.62
2022-10-15T10:04:52.793Z,393.75
2022-10-15T10:05:52.761Z,315.00
2022-10-15T10:06:52.762Z,275.62
2022-10-15T10:07:52.746Z,281.25
2022-10-15T10:08:52.765Z,264.38
2022-10-15T10:09:52.741Z,410.62
2022-10-15T10:10:52.823Z,275.62
2022-10-15T10:11:52.688Z,264.38
2022-10-15T10:12:52.722Z,253.12
2022-10-15T10:13:52.721Z,247.50
2022-10-15T10:14:52.660Z,247.50
2022-10-15T10:15:56.070Z,241.88
2022-10-15T10:16:53.655Z,247.50
2022-10-15T10:17:52.668Z,258.75
2022-10-15T10:18:52.643Z,264.38
2022-10-15T10:19:52.632Z,253.12
2022-10-15T10:20:52.644Z,241.88
2022-10-15T10:21:52.594Z,236.25
2022-10-15T10:22:52.633Z,236.25
2022-10-15T10:23:52.573Z,241.88
2022-10-15T10:24:52.613Z,247.50
2022-10-15T10:25:52.581Z,264.38
2022-10-15T10:26:52.616Z,286.88
2022-10-15T10:27:52.582Z,303.75
2022-10-15T10:28:56.675Z,292.50
2022-10-15T10:29:53.564Z,292.50
2022-10-15T10:30:52.507Z,303.75
2022-10-15T10:31:52.515Z,326.25
2022-10-15T10:32:52.484Z,376.88
2022-10-15T10:33:52.473Z,337.50
2022-10-15T10:34:53.106Z,348.75
2022-10-15T10:35:52.460Z,326.25
2022-10-15T10:36:52.447Z,326.25
2022-10-15T10:37:52.428Z,326.25
2022-10-15T10:38:52.415Z,331.88
2022-10-15T10:39:52.410Z,326.25
2022-10-15T10:40:52.413Z,315.00
2022-10-15T10:41:52.402Z,303.75
2022-10-15T10:42:52.358Z,298.12
2022-10-15T10:43:52.369Z,292.50
2022-10-15T10:44:52.357Z,286.88
2022-10-15T10:45:52.390Z,286.88
2022-10-15T10:46:52.333Z,298.12
2022-10-15T10:47:52.327Z,326.25
2022-10-15T10:48:52.317Z,309.38
2022-10-15T10:49:52.323Z,303.75
2022-10-15T10:50:52.290Z,315.00
2022-10-15T10:51:52.291Z,320.62
2022-10-15T10:52:52.279Z,320.62
2022-10-15T10:53:52.289Z,315.00
2022-10-15T10:54:52.313Z,309.38
2022-10-15T10:55:52.281Z,303.75
2022-10-15T10:56:52.229Z,298.12
2022-10-15T10:57:52.237Z,292.50
2022-10-15T10:58:52.210Z,298.12
2022-10-15T10:59:52.259Z,298.12
2022-10-15T11:00:52.224Z,292.50
2022-10-15T11:01:52.187Z,281.25
2022-10-15T11:02:52.170Z,258.75
2022-10-15T11:03:52.187Z,264.38
2022-10-15T11:04:52.154Z,270.00
2022-10-15T11:05:52.155Z,270.00
2022-10-15T11:06:52.131Z,264.38
2022-10-15T11:07:52.136Z,247.50
2022-10-15T11:08:52.110Z,225.00
2022-10-15T11:09:55.307Z,213.75
2022-10-15T11:10:52.125Z,236.25
2022-10-15T11:11:52.123Z,253.12
2022-10-15T11:12:52.080Z,270.00
2022-10-15T11:13:52.060Z,281.25
2022-10-15T11:14:52.040Z,315.00
2022-10-15T11:15:52.032Z,320.62
2022-10-15T11:16:52.046Z,331.88
2022-10-15T11:17:52.002Z,337.50
2022-10-15T11:18:52.019Z,326.25
2022-10-15T11:20:12.144Z,320.62
2022-10-15T11:20:58.737Z,309.38
2022-10-15T11:21:52.992Z,292.50
2022-10-15T11:22:51.997Z,281.25
2022-10-15T11:23:51.951Z,275.62
2022-10-15T11:25:05.944Z,275.62
2022-10-15T11:25:52.944Z,286.88
2022-10-15T11:26:59.361Z,298.12
2022-10-15T11:27:52.941Z,298.12
2022-10-15T11:28:51.991Z,298.12
2022-10-15T11:29:51.883Z,303.75
2022-10-15T11:30:51.889Z,326.25
2022-10-15T11:32:03.010Z,348.75
2022-10-15T11:33:09.442Z,371.25
2022-10-15T11:33:52.850Z,376.88
2022-10-15T11:34:51.849Z,354.38
2022-10-15T11:35:54.283Z,315.00
2022-10-15T11:36:51.811Z,298.12
2022-10-15T11:37:51.808Z,371.25
2022-10-15T11:38:51.838Z,298.12
2022-10-15T11:39:51.851Z,292.50
2022-10-15T11:40:51.771Z,264.38
2022-10-15T11:41:51.784Z,258.75
2022-10-15T11:42:51.766Z,258.75
2022-10-15T11:43:51.743Z,270.00
2022-10-15T11:44:51.827Z,286.88
2022-10-15T11:45:51.736Z,292.50
2022-10-15T11:46:51.750Z,286.88
2022-10-15T11:47:51.745Z,264.38
2022-10-15T11:48:51.707Z,247.50
2022-10-15T11:49:51.694Z,247.50
2022-10-15T11:50:51.685Z,253.12
2022-10-15T11:51:51.664Z,258.75
2022-10-15T11:52:51.710Z,275.62
2022-10-15T11:53:51.747Z,292.50
2022-10-15T11:54:51.628Z,281.25
2022-10-15T11:55:51.664Z,264.38
2022-10-15T11:56:51.712Z,247.50
2022-10-15T11:57:51.627Z,253.12
2022-10-15T11:58:51.681Z,225.00
2022-10-15T11:59:51.618Z,213.75
2022-10-15T12:00:51.653Z,213.75
2022-10-15T12:01:51.601Z,225.00
2022-10-15T12:02:51.578Z,286.88
2022-10-15T12:03:51.573Z,309.38
2022-10-15T12:04:51.517Z,264.38
2022-10-15T12:05:51.512Z,309.38
2022-10-15T12:06:51.530Z,225.00
2022-10-15T12:07:51.544Z,219.38
2022-10-15T12:08:51.642Z,219.38
2022-10-15T12:09:51.480Z,230.62
2022-10-15T12:10:51.477Z,247.50
2022-10-15T12:11:51.440Z,286.88
2022-10-15T12:12:51.430Z,303.75
2022-10-15T12:13:51.480Z,315.00
2022-10-15T12:14:51.500Z,500.62
2022-10-15T12:15:51.405Z,331.88
2022-10-15T12:16:51.424Z,320.62
2022-10-15T12:17:51.381Z,478.12
2022-10-15T12:18:51.374Z,298.12
2022-10-15T12:19:51.354Z,286.88
2022-10-15T12:20:51.339Z,275.62
2022-10-15T12:21:51.383Z,258.75
2022-10-15T12:22:51.336Z,230.62
2022-10-15T12:23:51.316Z,225.00
2022-10-15T12:24:51.326Z,241.88
2022-10-15T12:25:51.309Z,253.12
2022-10-15T12:26:51.296Z,270.00
2022-10-15T12:27:51.309Z,360.00
2022-10-15T12:28:51.305Z,281.25
2022-10-15T12:29:51.249Z,270.00
2022-10-15T12:30:51.246Z,376.88
2022-10-15T12:31:51.250Z,275.62
2022-10-15T12:32:51.229Z,281.25
2022-10-15T12:33:51.208Z,270.00
2022-10-15T12:34:51.191Z,264.38
2022-10-15T12:35:51.200Z,258.75
2022-10-15T12:36:51.181Z,247.50
2022-10-15T12:37:51.160Z,241.88
2022-10-15T12:38:51.172Z,236.25
2022-10-15T12:39:52.999Z,230.62
2022-10-15T12:40:51.196Z,208.12
2022-10-15T12:41:51.150Z,196.88
2022-10-15T12:42:51.132Z,185.62
2022-10-15T12:43:51.112Z,180.00
2022-10-15T12:44:51.132Z,180.00
2022-10-15T12:45:51.114Z,168.75
2022-10-15T12:46:51.085Z,157.50
2022-10-15T12:47:51.066Z,146.25
2022-10-15T12:48:51.063Z,129.38
2022-10-15T12:49:51.055Z,123.75
2022-10-15T12:50:51.051Z,112.50
2022-10-15T12:51:55.934Z,101.25
2022-10-15T12:52:52.013Z,106.88